createdAt,value
2022-12-22T00:00:22.897Z,3.23
2022-12-22T00:03:15.112Z,3.13
2022-12-22T00:06:01.333Z,1.43
2022-12-22T00:08:53.867Z,1.50
2022-12-22T00:11:39.949Z,1.50
2022-12-22T00:14:35.891Z,1.30
2022-12-22T00:17:22.574Z,2.13
2022-12-22T00:20:18.542Z,2.27
2022-12-22T00:23:05.129Z,2.83
2022-12-22T00:25:57.853Z,3.43
2022-12-22T00:29:03.864Z,1.57
2022-12-22T00:31:55.862Z,2.47
2022-12-22T00:34:42.179Z,2.27
2022-12-22T00:37:39.932Z,3.63
2022-12-22T00:40:43.524Z,1.70
2022-12-22T00:43:35.882Z,4.23
2022-12-22T00:46:23.438Z,1.43
2022-12-22T00:49:16.869Z,2.67
2022-12-22T00:52:03.386Z,3.67
2022-12-22T00:54:55.887Z,2.77
2022-12-22T00:57:45.044Z,2.37
2022-12-22T01:00:46.869Z,4.87
2022-12-22T01:03:33.203Z,3.10
2022-12-22T01:06:26.898Z,2.40
2022-12-22T01:09:13.063Z,1.87
2022-12-22T01:12:05.886Z,2.47
2022-12-22T01:14:51.683Z,2.57
2022-12-22T01:17:44.866Z,3.03
2022-12-22T01:20:30.917Z,3.40
2022-12-22T01:23:23.878Z,2.60
2022-12-22T01:26:09.688Z,4.70
2022-12-22T01:29:08.872Z,1.90
2022-12-22T01:32:01.503Z,4.37
2022-12-22T01:34:53.901Z,3.10
2022-12-22T01:37:41.762Z,2.57
2022-12-22T01:40:55.057Z,1.53
2022-12-22T01:43:45.710Z,1.83
2022-12-22T01:46:53.117Z,1.97
2022-12-22T01:49:56.371Z,2.30
2022-12-22T01:52:54.062Z,1.27
2022-12-22T01:55:43.336Z,1.30
2022-12-22T01:58:53.045Z,2.80
2022-12-22T02:01:39.020Z,0.90
2022-12-22T02:04:34.028Z,1.20
2022-12-22T02:07:30.577Z,1.33
2022-12-22T02:10:52.099Z,1.90
2022-12-22T02:13:40.766Z,0.80
2022-12-22T02:16:57.077Z,1.47
2022-12-22T02:20:14.708Z,2.17
2022-12-22T02:23:16.138Z,0.80
2022-12-22T02:26:13.846Z,0.73
2022-12-22T02:29:07.061Z,4.73
2022-12-22T02:32:00.214Z,1.60
2022-12-22T02:34:53.046Z,1.27
2022-12-22T02:38:00.170Z,2.20
2022-12-22T02:41:06.079Z,2.10
2022-12-22T02:44:02.875Z,0.40
2022-12-22T02:47:20.366Z,0.50
2022-12-22T02:50:14.349Z,1.00
2022-12-22T02:53:09.368Z,3.90
2022-12-22T02:55:55.313Z,0.93
2022-12-22T02:58:51.372Z,1.13
2022-12-22T03:01:38.044Z,2.23
2022-12-22T03:04:31.322Z,2.07
2022-12-22T03:07:17.152Z,1.30
2022-12-22T03:10:09.372Z,0.73
2022-12-22T03:13:03.364Z,1.87
2022-12-22T03:15:56.438Z,1.60
2022-12-22T03:18:43.963Z,1.00
2022-12-22T03:21:36.471Z,2.57
2022-12-22T03:24:22.609Z,0.67
2022-12-22T03:26:56.498Z,0.80
2022-12-22T03:29:30.564Z,1.33
2022-12-22T03:32:06.162Z,1.50
2022-12-22T03:34:33.517Z,2.97
2022-12-22T03:37:01.184Z,1.63
2022-12-22T03:39:35.162Z,1.80
2022-12-22T03:42:21.147Z,2.73
2022-12-22T03:45:14.124Z,2.27
2022-12-22T03:47:41.585Z,0.70
2022-12-22T03:50:09.350Z,3.13
2022-12-22T03:52:43.107Z,4.43
2022-12-22T03:55:10.833Z,0.80
2022-12-22T03:57:38.398Z,1.73
2022-12-22T04:00:13.107Z,2.43
2022-12-22T04:02:40.652Z,1.63
2022-12-22T04:05:08.765Z,4.73
2022-12-22T04:07:43.124Z,4.07
2022-12-22T04:10:29.505Z,3.43
2022-12-22T04:13:03.136Z,4.17
2022-12-22T04:15:32.805Z,1.90
2022-12-22T04:18:00.596Z,4.13
2022-12-22T04:20:35.102Z,3.30
2022-12-22T04:23:02.785Z,1.27
2022-12-22T04:25:30.843Z,3.37
2022-12-22T04:28:06.076Z,1.97
2022-12-22T04:30:40.189Z,1.87
2022-12-22T04:33:16.425Z,2.30
2022-12-22T04:35:44.249Z,1.10
2022-12-22T04:38:11.721Z,2.13
2022-12-22T04:40:45.394Z,3.03
2022-12-22T04:43:12.857Z,3.20
2022-12-22T04:45:40.337Z,4.67
2022-12-22T04:48:14.396Z,2.90
2022-12-22T04:50:41.857Z,4.13
2022-12-22T04:53:09.274Z,1.47
2022-12-22T04:55:43.443Z,2.37
2022-12-22T04:58:11.017Z,1.93
2022-12-22T05:00:38.462Z,3.13
2022-12-22T05:03:12.436Z,3.40
2022-12-22T05:05:39.890Z,2.20
2022-12-22T05:08:07.603Z,2.90
2022-12-22T05:10:41.408Z,1.70
2022-12-22T05:13:08.816Z,2.50
2022-12-22T05:15:37.148Z,1.70
2022-12-22T05:18:11.409Z,2.17
2022-12-22T05:20:40.788Z,1.40
2022-12-22T05:23:08.440Z,1.67
2022-12-22T05:25:42.857Z,0.97
2022-12-22T05:28:11.993Z,3.20
2022-12-22T05:30:55.052Z,2.60
2022-12-22T05:33:22.646Z,1.17
2022-12-22T05:35:52.521Z,2.53
2022-12-22T05:38:26.012Z,3.73
2022-12-22T05:41:01.538Z,2.57
2022-12-22T05:43:38.284Z,3.30
2022-12-22T05:46:08.283Z,5.60
2022-12-22T05:48:38.980Z,2.50
2022-12-22T05:51:15.209Z,2.60
2022-12-22T05:53:42.687Z,5.00
2022-12-22T05:56:10.163Z,3.77
2022-12-22T05:58:47.234Z,5.77
2022-12-22T06:01:14.785Z,4.17
2022-12-22T06:03:42.402Z,4.60
2022-12-22T06:06:16.237Z,5.57
2022-12-22T06:08:43.696Z,3.27
2022-12-22T06:11:11.237Z,7.17
2022-12-22T06:13:45.252Z,8.70
2022-12-22T06:16:14.481Z,6.63
2022-12-22T06:18:44.592Z,7.83
2022-12-22T06:21:18.303Z,4.33
2022-12-22T06:24:16.268Z,6.43
2022-12-22T06:26:50.247Z,7.57
2022-12-22T06:29:24.528Z,6.97
2022-12-22T06:32:01.198Z,8.27
2022-12-22T06:34:29.044Z,5.27
2022-12-22T06:36:58.140Z,8.43
2022-12-22T06:39:34.491Z,12.00
2022-12-22T06:42:20.814Z,3.90
2022-12-22T06:44:57.465Z,4.37
2022-12-22T06:47:25.489Z,8.40
2022-12-22T06:49:54.641Z,7.63
2022-12-22T06:52:28.660Z,5.93
2022-12-22T06:54:56.317Z,8.20
2022-12-22T06:57:23.882Z,8.27
2022-12-22T06:59:58.175Z,2.87
2022-12-22T07:02:26.112Z,7.93
2022-12-22T07:04:53.996Z,10.53
2022-12-22T07:07:30.729Z,8.63
2022-12-22T07:09:58.499Z,7.67
2022-12-22T07:12:39.788Z,9.40
2022-12-22T07:15:08.575Z,8.57
2022-12-22T07:17:36.249Z,11.53
2022-12-22T07:20:10.780Z,8.77
2022-12-22T07:22:38.865Z,12.30
2022-12-22T07:25:07.011Z,10.20
2022-12-22T07:27:40.717Z,6.77
2022-12-22T07:30:28.664Z,9.27
2022-12-22T07:33:02.679Z,13.40
2022-12-22T07:35:30.946Z,8.63
2022-12-22T07:37:58.656Z,5.23
2022-12-22T07:40:35.619Z,8.30
2022-12-22T07:43:05.769Z,8.03
2022-12-22T07:45:40.739Z,10.33
2022-12-22T07:48:29.413Z,4.87
2022-12-22T07:51:11.717Z,10.20
2022-12-22T07:53:40.820Z,12.10
2022-12-22T07:56:08.966Z,9.97
2022-12-22T07:58:43.779Z,5.17
2022-12-22T08:01:11.475Z,8.83
2022-12-22T08:03:39.340Z,8.20
2022-12-22T08:06:13.648Z,7.90
2022-12-22T08:08:41.558Z,10.03
2022-12-22T08:11:09.200Z,9.97
2022-12-22T08:13:43.789Z,7.57
2022-12-22T08:16:13.872Z,11.77
2022-12-22T08:18:42.700Z,8.47
2022-12-22T08:21:16.656Z,10.50
2022-12-22T08:23:45.559Z,7.83
2022-12-22T08:26:23.714Z,12.43
2022-12-22T08:29:21.756Z,10.53
2022-12-22T08:31:55.754Z,7.40
2022-12-22T08:34:23.610Z,7.07
2022-12-22T08:36:55.392Z,9.47
2022-12-22T08:39:31.691Z,10.17
2022-12-22T08:42:00.161Z,6.97
2022-12-22T08:44:30.203Z,6.20
2022-12-22T08:47:06.495Z,6.40
2022-12-22T08:49:36.611Z,10.63
2022-12-22T08:52:05.616Z,5.40
2022-12-22T08:54:40.721Z,7.20
2022-12-22T08:57:09.613Z,9.90
2022-12-22T08:59:37.440Z,5.20
2022-12-22T09:02:13.757Z,3.90
2022-12-22T09:04:42.659Z,6.00
2022-12-22T09:07:11.165Z,8.73
2022-12-22T09:09:44.823Z,7.43
2022-12-22T09:12:18.953Z,5.43
2022-12-22T09:14:52.798Z,7.57
2022-12-22T09:17:21.128Z,6.80
2022-12-22T09:19:48.803Z,7.03
2022-12-22T09:22:28.533Z,5.00
2022-12-22T09:24:56.604Z,8.00
2022-12-22T09:27:30.884Z,8.07
2022-12-22T09:30:18.876Z,6.87
2022-12-22T09:32:53.885Z,5.63
2022-12-22T09:35:21.582Z,6.40
2022-12-22T09:37:50.150Z,6.30
2022-12-22T09:40:27.851Z,10.07
2022-12-22T09:42:55.526Z,6.83
2022-12-22T09:45:24.959Z,2.50
2022-12-22T09:48:01.813Z,6.80
2022-12-22T09:50:33.166Z,1.70
2022-12-22T09:53:12.890Z,4.43
2022-12-22T09:55:43.924Z,4.10
2022-12-22T09:58:32.884Z,2.77
2022-12-22T10:01:39.787Z,3.60
2022-12-22T10:04:16.914Z,2.80
2022-12-22T10:07:01.487Z,3.00
2022-12-22T10:09:54.195Z,4.80
2022-12-22T10:12:25.167Z,3.07
2022-12-22T10:15:01.844Z,2.40
2022-12-22T10:17:34.368Z,2.57
2022-12-22T10:20:25.852Z,3.13
2022-12-22T10:26:30.500Z,3.70
2022-12-22T10:29:15.309Z,4.03
2022-12-22T10:32:09.956Z,4.33
2022-12-22T10:34:43.834Z,1.17
2022-12-22T10:37:17.801Z,2.03
2022-12-22T10:39:47.111Z,3.70
2022-12-22T10:42:37.088Z,2.37
2022-12-22T10:45:37.812Z,3.77
2022-12-22T10:48:13.797Z,2.50
2022-12-22T10:50:49.953Z,2.97
2022-12-22T10:53:23.729Z,4.17
2022-12-22T10:56:08.460Z,3.20
2022-12-22T10:58:56.798Z,2.03
2022-12-22T11:01:31.189Z,5.63
2022-12-22T11:04:21.765Z,7.73
2022-12-22T11:06:49.624Z,2.93
2022-12-22T11:09:33.235Z,4.43
2022-12-22T11:12:25.759Z,2.10
2022-12-22T11:15:02.421Z,3.30
2022-12-22T11:17:39.915Z,3.77
2022-12-22T11:20:53.848Z,4.70
2022-12-22T11:23:55.779Z,3.70
2022-12-22T11:27:01.843Z,4.63
2022-12-22T11:30:06.795Z,2.60
2022-12-22T11:33:03.063Z,4.10
2022-12-22T11:36:01.946Z,2.53
2022-12-22T11:38:49.039Z,5.20
2022-12-22T11:42:00.912Z,5.00
2022-12-22T11:44:52.816Z,4.97
2022-12-22T11:47:50.789Z,3.53
2022-12-22T11:50:58.746Z,5.60
2022-12-22T11:54:10.355Z,4.17
2022-12-22T11:57:02.736Z,8.47
2022-12-22T12:00:08.811Z,4.57
2022-12-22T12:03:15.233Z,2.17
2022-12-22T12:05:51.799Z,5.50
2022-12-22T12:08:38.017Z,3.37
2022-12-22T12:11:26.822Z,6.93
2022-12-22T12:14:13.427Z,4.13
2022-12-22T12:17:06.771Z,4.80
2022-12-22T12:19:54.202Z,6.57
2022-12-22T12:22:49.781Z,5.60
2022-12-22T12:25:39.491Z,7.27
2022-12-22T12:28:29.917Z,4.07
2022-12-22T12:31:00.668Z,6.33
2022-12-22T12:33:59.792Z,2.63
2022-12-22T12:36:51.488Z,3.83
2022-12-22T12:39:53.801Z,5.23
2022-12-22T12:42:33.508Z,3.57
2022-12-22T12:45:08.832Z,3.70
2022-12-22T12:47:36.773Z,8.03
2022-12-22T12:50:35.775Z,7.70
2022-12-22T12:53:08.858Z,3.87
2022-12-22T12:55:45.797Z,8.23
2022-12-22T12:58:39.324Z,4.47
2022-12-22T13:01:18.813Z,4.53
2022-12-22T13:04:03.040Z,4.90
2022-12-22T13:06:53.798Z,5.13
2022-12-22T13:12:39.870Z,6.00
2022-12-22T13:15:29.037Z,3.83
2022-12-22T13:18:03.859Z,4.20
2022-12-22T13:20:42.986Z,2.70
2022-12-22T13:23:23.796Z,5.20
2022-12-22T13:25:59.532Z,4.47
2022-12-22T13:28:34.778Z,6.00
2022-12-22T13:31:28.229Z,9.13
2022-12-22T13:35:04.443Z,6.67
2022-12-22T13:37:29.352Z,4.20
2022-12-22T13:40:33.828Z,7.47
2022-12-22T13:43:14.957Z,6.97
2022-12-22T13:45:52.777Z,12.10
2022-12-22T13:48:23.224Z,9.73
2022-12-22T13:51:09.807Z,7.73
2022-12-22T13:54:12.550Z,6.10
2022-12-22T13:56:58.780Z,14.13
2022-12-22T13:59:36.653Z,11.23
2022-12-22T14:02:16.918Z,11.40
2022-12-22T14:05:05.645Z,9.47
2022-12-22T14:07:39.800Z,15.67
2022-12-22T14:10:08.335Z,16.47
2022-12-22T14:12:50.799Z,12.40
2022-12-22T14:15:20.405Z,14.53
2022-12-22T14:17:52.930Z,13.00
2022-12-22T14:20:41.809Z,15.30
2022-12-22T14:23:17.691Z,20.10
2022-12-22T14:25:54.007Z,11.97
2022-12-22T14:28:29.037Z,12.33
2022-12-22T14:31:04.986Z,11.60
2022-12-22T14:33:34.611Z,14.87
2022-12-22T14:36:33.070Z,13.50
2022-12-22T14:39:07.395Z,13.60
2022-12-22T14:41:57.936Z,12.50
2022-12-22T14:44:43.310Z,17.30
2022-12-22T14:47:26.009Z,14.93
2022-12-22T14:50:16.361Z,17.57
2022-12-22T14:53:05.969Z,10.80
2022-12-22T14:55:41.789Z,21.40
2022-12-22T14:58:46.983Z,15.60
2022-12-22T15:01:22.592Z,21.10
2022-12-22T15:04:23.972Z,12.80
2022-12-22T15:06:51.890Z,9.57
2022-12-22T15:09:39.511Z,20.70
2022-12-22T15:12:23.359Z,12.60
2022-12-22T15:14:51.846Z,15.10
2022-12-22T15:17:30.294Z,14.50
2022-12-22T15:20:06.385Z,14.33
2022-12-22T15:22:47.329Z,16.63
2022-12-22T15:25:17.893Z,21.57
2022-12-22T15:27:45.323Z,14.93
2022-12-22T15:30:26.727Z,17.47
2022-12-22T15:32:55.234Z,18.60
2022-12-22T15:35:40.360Z,23.60
2022-12-22T15:38:15.740Z,9.93
2022-12-22T15:40:50.329Z,11.97
2022-12-22T15:46:13.335Z,16.80
2022-12-22T15:48:41.413Z,20.77
2022-12-22T15:51:28.385Z,14.43
2022-12-22T15:53:58.232Z,13.70
2022-12-22T15:56:27.629Z,16.63
2022-12-22T15:59:02.357Z,14.47
2022-12-22T16:01:29.878Z,14.57
2022-12-22T16:03:57.347Z,23.23
2022-12-22T16:06:32.326Z,19.77
2022-12-22T16:08:59.958Z,17.37
2022-12-22T16:11:27.423Z,15.47
2022-12-22T16:14:01.332Z,14.23
2022-12-22T16:16:28.842Z,16.50
2022-12-22T16:19:09.339Z,16.23
2022-12-22T16:21:47.889Z,17.43
2022-12-22T16:24:34.321Z,19.27
2022-12-22T16:27:02.515Z,17.20
2022-12-22T16:29:32.395Z,11.17
2022-12-22T16:32:33.778Z,20.40
2022-12-22T16:35:15.241Z,24.33
2022-12-22T16:37:51.877Z,14.63
2022-12-22T16:40:19.842Z,17.23
2022-12-22T16:45:47.926Z,20.67
2022-12-22T16:48:53.789Z,18.70
2022-12-22T16:51:37.357Z,22.77
2022-12-22T16:54:11.822Z,21.90
2022-12-22T16:56:41.892Z,19.90
2022-12-22T16:59:12.026Z,13.17
2022-12-22T17:02:01.239Z,18.27
2022-12-22T17:04:31.746Z,15.57
2022-12-22T17:07:08.114Z,17.93
2022-12-22T17:09:53.951Z,20.00
2022-12-22T17:12:34.041Z,20.57
2022-12-22T17:15:01.855Z,15.40
2022-12-22T17:17:35.441Z,17.97
2022-12-22T17:20:13.139Z,19.33
2022-12-22T17:22:50.127Z,16.50
2022-12-22T17:25:29.146Z,13.73
2022-12-22T17:27:58.910Z,14.20
2022-12-22T17:30:27.670Z,21.13
2022-12-22T17:33:02.097Z,13.00
2022-12-22T17:35:33.233Z,19.60
2022-12-22T17:38:00.639Z,13.10
2022-12-22T17:40:39.222Z,14.77
2022-12-22T17:43:06.756Z,17.00
2022-12-22T17:45:34.132Z,17.97
2022-12-22T17:48:09.061Z,21.67
2022-12-22T17:50:37.032Z,18.83
2022-12-22T17:53:06.560Z,22.47
2022-12-22T17:56:07.366Z,14.20
2022-12-22T17:58:28.552Z,19.87
2022-12-22T18:01:02.176Z,17.27
2022-12-22T18:03:29.777Z,23.33
2022-12-22T18:05:59.040Z,22.00
2022-12-22T18:08:33.079Z,21.47
2022-12-22T18:11:07.309Z,20.03
2022-12-22T18:13:42.110Z,18.07
2022-12-22T18:16:16.509Z,27.47
2022-12-22T18:18:51.389Z,19.00
2022-12-22T18:21:28.444Z,22.70
2022-12-22T18:24:11.327Z,20.27
2022-12-22T18:26:38.690Z,22.27
2022-12-22T18:29:06.412Z,22.40
2022-12-22T18:31:40.442Z,18.70
2022-12-22T18:34:07.869Z,22.00
2022-12-22T18:36:36.685Z,22.03
2022-12-22T18:39:16.732Z,22.17
2022-12-22T18:41:46.323Z,24.90
2022-12-22T18:44:25.337Z,24.63
2022-12-22T18:46:53.296Z,19.30
2022-12-22T18:49:20.874Z,19.80
2022-12-22T18:51:55.358Z,19.23
2022-12-22T18:54:32.391Z,16.67
2022-12-22T18:57:06.354Z,22.50
2022-12-22T18:59:33.747Z,20.87
2022-12-22T19:02:35.429Z,15.33
2022-12-22T19:05:10.522Z,12.97
2022-12-22T19:07:44.361Z,13.60
2022-12-22T19:10:33.048Z,11.67
2022-12-22T19:13:08.782Z,18.53
2022-12-22T19:15:40.883Z,14.63
2022-12-22T19:18:26.169Z,12.30
2022-12-22T19:21:01.824Z,17.67
2022-12-22T19:23:42.807Z,14.50
2022-12-22T19:26:36.821Z,16.67
2022-12-22T19:29:11.870Z,19.37
2022-12-22T19:31:39.612Z,9.77
2022-12-22T19:34:18.734Z,13.47
2022-12-22T19:36:46.281Z,11.60
2022-12-22T19:39:13.665Z,11.03
2022-12-22T19:41:58.764Z,9.90
2022-12-22T19:44:29.604Z,12.13
2022-12-22T19:47:05.792Z,8.40
2022-12-22T19:49:36.213Z,10.67
2022-12-22T19:52:03.677Z,6.47
2022-12-22T19:54:44.889Z,4.50
2022-12-22T19:57:20.537Z,5.73
2022-12-22T19:59:58.013Z,5.67
2022-12-22T20:02:31.745Z,6.00
2022-12-22T20:05:13.286Z,6.43
2022-12-22T20:07:42.559Z,4.97
2022-12-22T20:10:16.918Z,4.53
2022-12-22T20:12:46.216Z,4.93
2022-12-22T20:15:24.920Z,5.07
2022-12-22T20:17:54.107Z,5.10
2022-12-22T20:20:55.752Z,3.40
2022-12-22T20:23:25.982Z,2.63
2022-12-22T20:26:11.923Z,3.00
2022-12-22T20:30:15.557Z,4.93
2022-12-22T20:32:50.552Z,1.73
2022-12-22T20:35:18.864Z,1.90
2022-12-22T20:37:46.654Z,3.57
2022-12-22T20:40:33.556Z,1.73
2022-12-22T20:43:00.908Z,1.07
2022-12-22T20:45:32.343Z,2.10
2022-12-22T20:48:07.324Z,2.73
2022-12-22T20:50:34.818Z,1.33
2022-12-22T20:53:02.567Z,0.90
2022-12-22T20:55:36.306Z,5.60
2022-12-22T20:58:06.396Z,2.97
2022-12-22T21:00:33.838Z,2.37
2022-12-22T21:03:09.343Z,2.30
2022-12-22T21:05:36.802Z,2.10
2022-12-22T21:08:20.452Z,1.07
2022-12-22T21:10:49.824Z,4.17
2022-12-22T21:13:25.322Z,3.33
2022-12-22T21:15:53.014Z,2.90
2022-12-22T21:18:24.338Z,1.60
2022-12-22T21:20:59.372Z,2.40
2022-12-22T21:23:26.739Z,1.27
2022-12-22T21:25:54.404Z,2.03
2022-12-22T21:28:39.367Z,2.87
2022-12-22T21:31:13.541Z,1.10
2022-12-22T21:33:47.310Z,3.70
2022-12-22T21:36:23.860Z,2.10
2022-12-22T21:39:03.300Z,2.40
2022-12-22T21:41:49.147Z,1.90
2022-12-22T21:44:23.333Z,2.63
2022-12-22T21:46:51.048Z,2.17
2022-12-22T21:49:31.331Z,4.03
2022-12-22T21:51:59.036Z,0.97
2022-12-22T21:54:27.361Z,4.27
2022-12-22T21:57:03.305Z,3.23
2022-12-22T21:59:30.752Z,0.93
2022-12-22T22:01:58.483Z,3.93
2022-12-22T22:04:34.728Z,1.43
2022-12-22T22:07:02.081Z,2.97
2022-12-22T22:09:29.674Z,3.50
2022-12-22T22:12:28.006Z,3.57
2022-12-22T22:14:55.764Z,2.07
2022-12-22T22:17:29.596Z,4.40
2022-12-22T22:19:58.911Z,2.97
2022-12-22T22:22:26.394Z,3.53
2022-12-22T22:25:00.042Z,5.23
2022-12-22T22:27:29.793Z,3.83
2022-12-22T22:30:14.049Z,2.00
2022-12-22T22:32:43.951Z,4.63
2022-12-22T22:35:11.820Z,5.27
2022-12-22T22:37:46.544Z,1.60
2022-12-22T22:40:15.693Z,1.53
2022-12-22T22:42:43.213Z,3.37
2022-12-22T22:45:22.479Z,0.80
2022-12-22T22:47:53.516Z,3.90
2022-12-22T22:50:22.266Z,2.97
2022-12-22T22:52:56.558Z,3.13
2022-12-22T22:55:24.084Z,2.23
2022-12-22T22:57:54.798Z,1.90
2022-12-22T23:00:29.491Z,4.13
2022-12-22T23:02:57.040Z,1.50
2022-12-22T23:05:24.731Z,3.53
2022-12-22T23:07:58.506Z,2.57
2022-12-22T23:10:26.185Z,1.80
2022-12-22T23:12:54.315Z,0.93
2022-12-22T23:15:28.491Z,0.93
2022-12-22T23:17:55.850Z,1.17
2022-12-22T23:20:23.240Z,3.40
2022-12-22T23:22:57.491Z,0.90
2022-12-22T23:25:25.203Z,0.83
2022-12-22T23:28:12.493Z,1.20
2022-12-22T23:30:41.774Z,1.40
2022-12-22T23:33:09.883Z,0.20
2022-12-22T23:35:45.519Z,0.30
2022-12-22T23:38:13.460Z,1.13
2022-12-22T23:40:52.529Z,0.23
2022-12-22T23:43:28.509Z,0.20
2022-12-22T23:45:58.531Z,1.50
2022-12-22T23:48:25.933Z,0.37
2022-12-22T23:51:00.181Z,0.40
2022-12-22T23:53:27.567Z,0.23
2022-12-22T23:55:54.923Z,0.20
2022-12-22T23:58:29.179Z,0.67
